PWSweather.com
Personal Weather Stations
Station Observations
DW6359
Southwest Cambria, Cambria, WI 53923

Southwest CambriaCambria, WI 53923

Lat: 43.541194, Lon: -89.11275

Elevation: 945

Station Type: Davis Vantage Pro2

http://home.centurytel.net/weathercambria/wxcambria.html

High Low Average
Temperature 28.6°F-1.9°C 4.3°F-15.4°C 17.7°F-7.9°C
Dew Point 20.6°F-6.3°C 0.7°F-17.4°C 10.5°F-11.9°C
Winds 16.0 mph 25.7 kmh Calm Calm 4.0 mph SSW6.4 kmh SSW
Wind Gusts 22.0 mph35.4 kmh -- 2.0 mph3.2 kmh
Humidity 85% 59% 74%
Pressure 30.60 in1036.2 mb 29.95 in1014.2 mb -
Precipitation 0.00 in0.0 mm - -
Hour Temp Dew Point Humidity Winds Wind Gusts Pressure Precip Precip Rate Daily Precip Total
12:00 AM 13.5°F-10.3°C 7.1°F-13.8°C 75% 4.0 mph NW6.4 kmh NW -- 30.58 in1035.6 mb 0.00 in0.0 mm 0.00 in0.0 mm 0.00 in0.0 mm
12:05 AM 13.6°F-10.2°C 7.2°F-13.8°C 75% 4.0 mph NW6.4 kmh NW -- 30.58 in1035.6 mb 0.00 in0.0 mm 0.00 in0.0 mm 0.00 in0.0 mm
12:10 AM 13.6°F-10.2°C 7.2°F-13.8°C 75% 3.0 mph NW4.8 kmh NW -- 30.58 in1035.6 mb 0.00 in0.0 mm 0.00 in0.0 mm 0.00 in0.0 mm
12:15 AM 13.6°F-10.2°C 6.9°F-13.9°C 74% 3.0 mph NW4.8 kmh NW -- 30.58 in1035.6 mb 0.00 in0.0 mm 0.00 in0.0 mm 0.00 in0.0 mm
12:20 AM 13.4°F-10.3°C 7.0°F-13.9°C 75% 3.0 mph NW4.8 kmh NW 5.0 mph8.0 kmh 30.58 in1035.6 mb 0.00 in0.0 mm 0.00 in0.0 mm 0.00 in0.0 mm
12:25 AM 13.3°F-10.4°C 6.9°F-13.9°C 75% 3.0 mph NW4.8 kmh NW 5.0 mph8.0 kmh 30.58 in1035.6 mb 0.00 in0.0 mm 0.00 in0.0 mm 0.00 in0.0 mm
12:30 AM 13.1°F-10.5°C 6.7°F-14.1°C 75% 4.0 mph NW6.4 kmh NW -- 30.58 in1035.6 mb 0.00 in0.0 mm 0.00 in0.0 mm 0.00 in0.0 mm
12:35 AM 13.1°F-10.5°C 6.7°F-14.1°C 75% 3.0 mph WNW4.8 kmh WNW -- 30.58 in1035.6 mb 0.00 in0.0 mm 0.00 in0.0 mm 0.00 in0.0 mm
12:40 AM 12.9°F-10.6°C 6.8°F-14.0°C 76% 4.0 mph WNW6.4 kmh WNW -- 30.58 in1035.6 mb 0.00 in0.0 mm 0.00 in0.0 mm 0.00 in0.0 mm
12:45 AM 12.5°F-10.8°C 6.4°F-14.2°C 76% 3.0 mph W4.8 kmh W -- 30.58 in1035.6 mb 0.00 in0.0 mm 0.00 in0.0 mm 0.00 in0.0 mm
12:50 AM 12.1°F-11.1°C 6.0°F-14.4°C 76% 3.0 mph W4.8 kmh W -- 30.58 in1035.6 mb 0.00 in0.0 mm 0.00 in0.0 mm 0.00 in0.0 mm
12:55 AM 11.8°F-11.2°C 6.0°F-14.4°C 77% 1.0 mph W1.6 kmh W -- 30.58 in1035.6 mb 0.00 in0.0 mm 0.00 in0.0 mm 0.00 in0.0 mm
01:00 AM 11.6°F-11.3°C 5.8°F-14.6°C 77% 1.0 mph W1.6 kmh W -- 30.58 in1035.6 mb 0.00 in0.0 mm 0.00 in0.0 mm 0.00 in0.0 mm
01:05 AM 11.5°F-11.4°C 6.0°F-14.4°C 78% 2.0 mph W3.2 kmh W -- 30.58 in1035.6 mb 0.00 in0.0 mm 0.00 in0.0 mm 0.00 in0.0 mm
01:10 AM 11.5°F-11.4°C 6.0°F-14.4°C 78% 4.0 mph W6.4 kmh W 5.0 mph8.0 kmh 30.58 in1035.6 mb 0.00 in0.0 mm 0.00 in0.0 mm 0.00 in0.0 mm
01:15 AM 11.5°F-11.4°C 6.0°F-14.4°C 78% 3.0 mph W4.8 kmh W 5.0 mph8.0 kmh 30.58 in1035.6 mb 0.00 in0.0 mm 0.00 in0.0 mm 0.00 in0.0 mm
01:20 AM 11.4°F-11.4°C 5.9°F-14.5°C 78% 4.0 mph W6.4 kmh W -- 30.58 in1035.6 mb 0.00 in0.0 mm 0.00 in0.0 mm 0.00 in0.0 mm
01:25 AM 11.4°F-11.4°C 5.9°F-14.5°C 78% 5.0 mph W8.0 kmh W -- 30.58 in1035.6 mb 0.00 in0.0 mm 0.00 in0.0 mm 0.00 in0.0 mm
01:30 AM 11.2°F-11.6°C 5.7°F-14.6°C 78% 2.0 mph W3.2 kmh W -- 30.58 in1035.6 mb 0.00 in0.0 mm 0.00 in0.0 mm 0.00 in0.0 mm
01:35 AM 11.0°F-11.7°C 5.5°F-14.7°C 78% 4.0 mph W6.4 kmh W -- 30.58 in1035.6 mb 0.00 in0.0 mm 0.00 in0.0 mm 0.00 in0.0 mm
01:40 AM 10.9°F-11.7°C 5.4°F-14.8°C 78% 3.0 mph W4.8 kmh W -- 30.58 in1035.6 mb 0.00 in0.0 mm 0.00 in0.0 mm 0.00 in0.0 mm
01:45 AM 10.8°F-11.8°C 5.3°F-14.8°C 78% 4.0 mph W6.4 kmh W -- 30.58 in1035.6 mb 0.00 in0.0 mm 0.00 in0.0 mm 0.00 in0.0 mm
01:50 AM 10.7°F-11.8°C 5.5°F-14.7°C 79% 3.0 mph W4.8 kmh W -- 30.58 in1035.6 mb 0.00 in0.0 mm 0.00 in0.0 mm 0.00 in0.0 mm
01:55 AM 10.6°F-11.9°C 5.1°F-14.9°C 78% 2.0 mph W3.2 kmh W -- 30.57 in1035.2 mb 0.00 in0.0 mm 0.00 in0.0 mm 0.00 in0.0 mm
02:00 AM 10.4°F-12.0°C 4.9°F-15.1°C 78% 1.0 mph W1.6 kmh W 5.0 mph8.0 kmh 30.57 in1035.2 mb 0.00 in0.0 mm 0.00 in0.0 mm 0.00 in0.0 mm
02:05 AM 10.2°F-12.1°C 5.0°F-15.0°C 79% 2.0 mph W3.2 kmh W 5.0 mph8.0 kmh 30.57 in1035.2 mb 0.00 in0.0 mm 0.00 in0.0 mm 0.00 in0.0 mm
02:10 AM 10.1°F-12.2°C 4.9°F-15.1°C 79% Calm Calm -- 30.58 in1035.6 mb 0.00 in0.0 mm 0.00 in0.0 mm 0.00 in0.0 mm
02:15 AM 10.1°F-12.2°C 4.6°F-15.2°C 78% 2.0 mph W3.2 kmh W -- 30.58 in1035.6 mb 0.00 in0.0 mm 0.00 in0.0 mm 0.00 in0.0 mm
02:20 AM 10.1°F-12.2°C 4.6°F-15.2°C 78% 3.0 mph W4.8 kmh W -- 30.58 in1035.6 mb 0.00 in0.0 mm 0.00 in0.0 mm 0.00 in0.0 mm
02:25 AM 10.0°F-12.2°C 4.5°F-15.3°C 78% 3.0 mph W4.8 kmh W -- 30.58 in1035.6 mb 0.00 in0.0 mm 0.00 in0.0 mm 0.00 in0.0 mm
02:30 AM 10.0°F-12.2°C 4.3°F-15.4°C 77% 2.0 mph W3.2 kmh W -- 30.58 in1035.6 mb 0.00 in0.0 mm 0.00 in0.0 mm 0.00 in0.0 mm
02:35 AM 9.8°F-12.3°C 4.1°F-15.5°C 77% 1.0 mph W1.6 kmh W -- 30.58 in1035.6 mb 0.00 in0.0 mm 0.00 in0.0 mm 0.00 in0.0 mm
02:40 AM 9.6°F-12.4°C 3.9°F-15.6°C 77% 2.0 mph W3.2 kmh W -- 30.58 in1035.6 mb 0.00 in0.0 mm 0.00 in0.0 mm 0.00 in0.0 mm
02:45 AM 9.4°F-12.6°C 3.7°F-15.7°C 77% 2.0 mph W3.2 kmh W -- 30.59 in1035.9 mb 0.00 in0.0 mm 0.00 in0.0 mm 0.00 in0.0 mm
02:50 AM 9.3°F-12.6°C 3.9°F-15.6°C 78% 2.0 mph W3.2 kmh W 4.0 mph6.4 kmh 30.59 in1035.9 mb 0.00 in0.0 mm 0.00 in0.0 mm 0.00 in0.0 mm
02:55 AM 9.2°F-12.7°C 3.8°F-15.7°C 78% 1.0 mph W1.6 kmh W 4.0 mph6.4 kmh 30.59 in1035.9 mb 0.00 in0.0 mm 0.00 in0.0 mm 0.00 in0.0 mm
03:00 AM 9.0°F-12.8°C 3.6°F-15.8°C 78% Calm Calm -- 30.59 in1035.9 mb 0.00 in0.0 mm 0.00 in0.0 mm 0.00 in0.0 mm
03:05 AM 8.8°F-12.9°C 3.4°F-15.9°C 78% Calm Calm -- 30.59 in1035.9 mb 0.00 in0.0 mm 0.00 in0.0 mm 0.00 in0.0 mm
03:10 AM 8.7°F-12.9°C 3.5°F-15.8°C 79% Calm Calm -- 30.58 in1035.6 mb 0.00 in0.0 mm 0.00 in0.0 mm 0.00 in0.0 mm
03:15 AM 8.6°F-13.0°C 3.4°F-15.9°C 79% Calm Calm -- 30.58 in1035.6 mb 0.00 in0.0 mm 0.00 in0.0 mm 0.00 in0.0 mm
03:20 AM 8.4°F-13.1°C 3.3°F-15.9°C 79% Calm Calm -- 30.58 in1035.6 mb 0.00 in0.0 mm 0.00 in0.0 mm 0.00 in0.0 mm
03:25 AM 8.3°F-13.2°C 3.4°F-15.9°C 80% 1.0 mph W1.6 kmh W -- 30.58 in1035.6 mb 0.00 in0.0 mm 0.00 in0.0 mm 0.00 in0.0 mm
03:30 AM 8.2°F-13.2°C 3.3°F-15.9°C 80% 2.0 mph W3.2 kmh W -- 30.58 in1035.6 mb 0.00 in0.0 mm 0.00 in0.0 mm 0.00 in0.0 mm
03:35 AM 8.1°F-13.3°C 3.2°F-16.0°C 80% 3.0 mph W4.8 kmh W -- 30.58 in1035.6 mb 0.00 in0.0 mm 0.00 in0.0 mm 0.00 in0.0 mm
03:40 AM 8.1°F-13.3°C 3.5°F-15.8°C 81% 2.0 mph W3.2 kmh W 4.0 mph6.4 kmh 30.57 in1035.2 mb 0.00 in0.0 mm 0.00 in0.0 mm 0.00 in0.0 mm
03:45 AM 8.0°F-13.3°C 3.4°F-15.9°C 81% 2.0 mph W3.2 kmh W 4.0 mph6.4 kmh 30.58 in1035.6 mb 0.00 in0.0 mm 0.00 in0.0 mm 0.00 in0.0 mm
03:50 AM 7.8°F-13.4°C 3.2°F-16.0°C 81% 3.0 mph W4.8 kmh W -- 30.58 in1035.6 mb 0.00 in0.0 mm 0.00 in0.0 mm 0.00 in0.0 mm
03:55 AM 7.8°F-13.4°C 3.2°F-16.0°C 81% 2.0 mph W3.2 kmh W -- 30.58 in1035.6 mb 0.00 in0.0 mm 0.00 in0.0 mm 0.00 in0.0 mm
04:00 AM 7.7°F-13.5°C 3.1°F-16.1°C 81% 2.0 mph W3.2 kmh W -- 30.58 in1035.6 mb 0.00 in0.0 mm 0.00 in0.0 mm 0.00 in0.0 mm
04:05 AM 7.6°F-13.6°C 3.0°F-16.1°C 81% 2.0 mph W3.2 kmh W -- 30.58 in1035.6 mb 0.00 in0.0 mm 0.00 in0.0 mm 0.00 in0.0 mm
04:10 AM 7.5°F-13.6°C 2.9°F-16.2°C 81% Calm Calm -- 30.57 in1035.2 mb 0.00 in0.0 mm 0.00 in0.0 mm 0.00 in0.0 mm
04:15 AM 7.3°F-13.7°C 2.7°F-16.3°C 81% Calm Calm -- 30.57 in1035.2 mb 0.00 in0.0 mm 0.00 in0.0 mm 0.00 in0.0 mm
04:20 AM 7.2°F-13.8°C 2.6°F-16.3°C 81% Calm Calm -- 30.58 in1035.6 mb 0.00 in0.0 mm 0.00 in0.0 mm 0.00 in0.0 mm
04:25 AM 7.1°F-13.8°C 2.8°F-16.2°C 82% Calm Calm -- 30.57 in1035.2 mb 0.00 in0.0 mm 0.00 in0.0 mm 0.00 in0.0 mm
04:30 AM 7.1°F-13.8°C 2.8°F-16.2°C 82% Calm Calm -- 30.58 in1035.6 mb 0.00 in0.0 mm 0.00 in0.0 mm 0.00 in0.0 mm
04:35 AM 6.9°F-13.9°C 2.6°F-16.3°C 82% 1.0 mph W1.6 kmh W -- 30.58 in1035.6 mb 0.00 in0.0 mm 0.00 in0.0 mm 0.00 in0.0 mm
04:40 AM 6.9°F-13.9°C 2.6°F-16.3°C 82% 1.0 mph W1.6 kmh W -- 30.58 in1035.6 mb 0.00 in0.0 mm 0.00 in0.0 mm 0.00 in0.0 mm
04:45 AM 7.0°F-13.9°C 2.7°F-16.3°C 82% 1.0 mph W1.6 kmh W -- 30.58 in1035.6 mb 0.00 in0.0 mm 0.00 in0.0 mm 0.00 in0.0 mm
04:50 AM 6.9°F-13.9°C 2.6°F-16.3°C 82% 3.0 mph W4.8 kmh W -- 30.58 in1035.6 mb 0.00 in0.0 mm 0.00 in0.0 mm 0.00 in0.0 mm
04:55 AM 6.9°F-13.9°C 2.6°F-16.3°C 82% 2.0 mph W3.2 kmh W -- 30.58 in1035.6 mb 0.00 in0.0 mm 0.00 in0.0 mm 0.00 in0.0 mm
05:00 AM 6.7°F-14.1°C 2.4°F-16.4°C 82% 3.0 mph W4.8 kmh W -- 30.58 in1035.6 mb 0.00 in0.0 mm 0.00 in0.0 mm 0.00 in0.0 mm
05:05 AM 6.5°F-14.2°C 2.2°F-16.6°C 82% Calm Calm -- 30.58 in1035.6 mb 0.00 in0.0 mm 0.00 in0.0 mm 0.00 in0.0 mm
05:10 AM 6.4°F-14.2°C 2.1°F-16.6°C 82% Calm Calm -- 30.59 in1035.9 mb 0.00 in0.0 mm 0.00 in0.0 mm 0.00 in0.0 mm
05:15 AM 6.4°F-14.2°C 2.1°F-16.6°C 82% Calm Calm -- 30.59 in1035.9 mb 0.00 in0.0 mm 0.00 in0.0 mm 0.00 in0.0 mm
05:20 AM 6.4°F-14.2°C 2.1°F-16.6°C 82% Calm Calm 2.0 mph3.2 kmh 30.59 in1035.9 mb 0.00 in0.0 mm 0.00 in0.0 mm 0.00 in0.0 mm
05:25 AM 6.3°F-14.3°C 2.0°F-16.7°C 82% Calm Calm 2.0 mph3.2 kmh 30.59 in1035.9 mb 0.00 in0.0 mm 0.00 in0.0 mm 0.00 in0.0 mm
05:30 AM 6.2°F-14.3°C 1.9°F-16.7°C 82% Calm Calm -- 30.59 in1035.9 mb 0.00 in0.0 mm 0.00 in0.0 mm 0.00 in0.0 mm
05:35 AM 6.2°F-14.3°C 1.9°F-16.7°C 82% Calm Calm -- 30.58 in1035.6 mb 0.00 in0.0 mm 0.00 in0.0 mm 0.00 in0.0 mm
05:40 AM 6.1°F-14.4°C 1.8°F-16.8°C 82% Calm Calm -- 30.58 in1035.6 mb 0.00 in0.0 mm 0.00 in0.0 mm 0.00 in0.0 mm
05:45 AM 6.2°F-14.3°C 1.9°F-16.7°C 82% 3.0 mph W4.8 kmh W -- 30.58 in1035.6 mb 0.00 in0.0 mm 0.00 in0.0 mm 0.00 in0.0 mm
05:50 AM 6.2°F-14.3°C 1.9°F-16.7°C 82% Calm Calm -- 30.58 in1035.6 mb 0.00 in0.0 mm 0.00 in0.0 mm 0.00 in0.0 mm
05:55 AM 6.1°F-14.4°C 1.8°F-16.8°C 82% Calm Calm -- 30.58 in1035.6 mb 0.00 in0.0 mm 0.00 in0.0 mm 0.00 in0.0 mm
06:00 AM 6.1°F-14.4°C 1.8°F-16.8°C 82% Calm Calm -- 30.58 in1035.6 mb 0.00 in0.0 mm 0.00 in0.0 mm 0.00 in0.0 mm
06:05 AM 6.0°F-14.4°C 1.7°F-16.8°C 82% Calm Calm -- 30.57 in1035.2 mb 0.00 in0.0 mm 0.00 in0.0 mm 0.00 in0.0 mm
06:10 AM 5.8°F-14.6°C 1.5°F-16.9°C 82% Calm Calm 2.0 mph3.2 kmh 30.57 in1035.2 mb 0.00 in0.0 mm 0.00 in0.0 mm 0.00 in0.0 mm
06:15 AM 5.8°F-14.6°C 1.5°F-16.9°C 82% Calm Calm 2.0 mph3.2 kmh 30.57 in1035.2 mb 0.00 in0.0 mm 0.00 in0.0 mm 0.00 in0.0 mm
06:20 AM 5.8°F-14.6°C 1.5°F-16.9°C 82% Calm Calm -- 30.57 in1035.2 mb 0.00 in0.0 mm 0.00 in0.0 mm 0.00 in0.0 mm
06:25 AM 5.7°F-14.6°C 1.7°F-16.8°C 83% Calm Calm -- 30.57 in1035.2 mb 0.00 in0.0 mm 0.00 in0.0 mm 0.00 in0.0 mm
06:30 AM 5.7°F-14.6°C 1.7°F-16.8°C 83% Calm Calm -- 30.57 in1035.2 mb 0.00 in0.0 mm 0.00 in0.0 mm 0.00 in0.0 mm
06:35 AM 5.7°F-14.6°C 1.7°F-16.8°C 83% Calm Calm -- 30.57 in1035.2 mb 0.00 in0.0 mm 0.00 in0.0 mm 0.00 in0.0 mm
06:40 AM 5.6°F-14.7°C 1.6°F-16.9°C 83% Calm Calm -- 30.56 in1034.9 mb 0.00 in0.0 mm 0.00 in0.0 mm 0.00 in0.0 mm
06:45 AM 5.5°F-14.7°C 1.5°F-16.9°C 83% Calm Calm -- 30.56 in1034.9 mb 0.00 in0.0 mm 0.00 in0.0 mm 0.00 in0.0 mm
06:50 AM 5.5°F-14.7°C 1.5°F-16.9°C 83% Calm Calm -- 30.56 in1034.9 mb 0.00 in0.0 mm 0.00 in0.0 mm 0.00 in0.0 mm
06:55 AM 5.5°F-14.7°C 1.5°F-16.9°C 83% Calm Calm -- 30.56 in1034.9 mb 0.00 in0.0 mm 0.00 in0.0 mm 0.00 in0.0 mm
07:00 AM 5.5°F-14.7°C 1.5°F-16.9°C 83% 2.0 mph W3.2 kmh W 2.0 mph3.2 kmh 30.57 in1035.2 mb 0.00 in0.0 mm 0.00 in0.0 mm 0.00 in0.0 mm
07:05 AM 5.3°F-14.8°C 1.3°F-17.1°C 83% 2.0 mph W3.2 kmh W 2.0 mph3.2 kmh 30.57 in1035.2 mb 0.00 in0.0 mm 0.00 in0.0 mm 0.00 in0.0 mm
07:10 AM 5.0°F-15.0°C 1.0°F-17.2°C 83% 1.0 mph W1.6 kmh W -- 30.58 in1035.6 mb 0.00 in0.0 mm 0.00 in0.0 mm 0.00 in0.0 mm
07:15 AM 4.7°F-15.2°C 0.7°F-17.4°C 83% 4.0 mph W6.4 kmh W -- 30.58 in1035.6 mb 0.00 in0.0 mm 0.00 in0.0 mm 0.00 in0.0 mm
07:20 AM 4.6°F-15.2°C 0.9°F-17.3°C 84% 2.0 mph W3.2 kmh W -- 30.59 in1035.9 mb 0.00 in0.0 mm 0.00 in0.0 mm 0.00 in0.0 mm
07:25 AM 4.5°F-15.3°C 0.8°F-17.3°C 84% 2.0 mph W3.2 kmh W -- 30.59 in1035.9 mb 0.00 in0.0 mm 0.00 in0.0 mm 0.00 in0.0 mm
07:30 AM 4.5°F-15.3°C 0.8°F-17.3°C 84% 2.0 mph W3.2 kmh W -- 30.59 in1035.9 mb 0.00 in0.0 mm 0.00 in0.0 mm 0.00 in0.0 mm
07:35 AM 4.5°F-15.3°C 1.0°F-17.2°C 85% 2.0 mph W3.2 kmh W -- 30.59 in1035.9 mb 0.00 in0.0 mm 0.00 in0.0 mm 0.00 in0.0 mm
07:40 AM 4.4°F-15.3°C 0.9°F-17.3°C 85% 2.0 mph W3.2 kmh W -- 30.59 in1035.9 mb 0.00 in0.0 mm 0.00 in0.0 mm 0.00 in0.0 mm
07:45 AM 4.3°F-15.4°C 0.8°F-17.3°C 85% Calm Calm -- 30.59 in1035.9 mb 0.00 in0.0 mm 0.00 in0.0 mm 0.00 in0.0 mm
07:50 AM 4.4°F-15.3°C 0.9°F-17.3°C 85% Calm Calm 2.0 mph3.2 kmh 30.59 in1035.9 mb 0.00 in0.0 mm 0.00 in0.0 mm 0.00 in0.0 mm
07:55 AM 4.4°F-15.3°C 0.9°F-17.3°C 85% 1.0 mph W1.6 kmh W 2.0 mph3.2 kmh 30.58 in1035.6 mb 0.00 in0.0 mm 0.00 in0.0 mm 0.00 in0.0 mm
08:00 AM 4.5°F-15.3°C 1.0°F-17.2°C 85% Calm Calm -- 30.58 in1035.6 mb 0.00 in0.0 mm 0.00 in0.0 mm 0.00 in0.0 mm
08:05 AM 4.6°F-15.2°C 1.1°F-17.2°C 85% Calm Calm -- 30.59 in1035.9 mb 0.00 in0.0 mm 0.00 in0.0 mm 0.00 in0.0 mm
08:10 AM 4.5°F-15.3°C 1.0°F-17.2°C 85% Calm Calm -- 30.59 in1035.9 mb 0.00 in0.0 mm 0.00 in0.0 mm 0.00 in0.0 mm
08:15 AM 4.5°F-15.3°C 0.8°F-17.3°C 84% Calm Calm -- 30.59 in1035.9 mb 0.00 in0.0 mm 0.00 in0.0 mm 0.00 in0.0 mm
08:20 AM 4.5°F-15.3°C 0.8°F-17.3°C 84% Calm Calm -- 30.59 in1035.9 mb 0.00 in0.0 mm 0.00 in0.0 mm 0.00 in0.0 mm
08:25 AM 4.5°F-15.3°C 0.8°F-17.3°C 84% Calm Calm -- 30.59 in1035.9 mb 0.00 in0.0 mm 0.00 in0.0 mm 0.00 in0.0 mm
08:30 AM 4.6°F-15.2°C 0.9°F-17.3°C 84% Calm Calm -- 30.59 in1035.9 mb 0.00 in0.0 mm 0.00 in0.0 mm 0.00 in0.0 mm
08:35 AM 4.7°F-15.2°C 0.9°F-17.3°C 84% Calm Calm -- 30.60 in1036.2 mb 0.00 in0.0 mm 0.00 in0.0 mm 0.00 in0.0 mm
08:40 AM 4.7°F-15.2°C 0.9°F-17.3°C 84% Calm Calm -- 30.59 in1035.9 mb 0.00 in0.0 mm 0.00 in0.0 mm 0.00 in0.0 mm
08:45 AM 4.7°F-15.2°C 0.9°F-17.3°C 84% Calm Calm -- 30.59 in1035.9 mb 0.00 in0.0 mm 0.00 in0.0 mm 0.00 in0.0 mm
08:50 AM 4.9°F-15.1°C 1.4°F-17.0°C 85% Calm Calm -- 30.59 in1035.9 mb 0.00 in0.0 mm 0.00 in0.0 mm 0.00 in0.0 mm
08:55 AM 5.0°F-15.0°C 1.5°F-16.9°C 85% Calm Calm -- 30.59 in1035.9 mb 0.00 in0.0 mm 0.00 in0.0 mm 0.00 in0.0 mm
09:00 AM 5.1°F-14.9°C 1.6°F-16.9°C 85% Calm Calm -- 30.59 in1035.9 mb 0.00 in0.0 mm 0.00 in0.0 mm 0.00 in0.0 mm
09:05 AM 5.3°F-14.8°C 1.8°F-16.8°C 85% Calm Calm -- 30.59 in1035.9 mb 0.00 in0.0 mm 0.00 in0.0 mm 0.00 in0.0 mm
09:10 AM 5.5°F-14.7°C 2.0°F-16.7°C 85% Calm Calm -- 30.59 in1035.9 mb 0.00 in0.0 mm 0.00 in0.0 mm 0.00 in0.0 mm
09:15 AM 5.7°F-14.6°C 2.2°F-16.6°C 85% Calm Calm -- 30.59 in1035.9 mb 0.00 in0.0 mm 0.00 in0.0 mm 0.00 in0.0 mm
09:20 AM 5.8°F-14.6°C 2.0°F-16.7°C 84% Calm Calm -- 30.59 in1035.9 mb 0.00 in0.0 mm 0.00 in0.0 mm 0.00 in0.0 mm
09:25 AM 6.2°F-14.3°C 2.7°F-16.3°C 85% Calm Calm -- 30.59 in1035.9 mb 0.00 in0.0 mm 0.00 in0.0 mm 0.00 in0.0 mm
09:30 AM 6.4°F-14.2°C 2.9°F-16.2°C 85% Calm Calm -- 30.59 in1035.9 mb 0.00 in0.0 mm 0.00 in0.0 mm 0.00 in0.0 mm
09:35 AM 7.0°F-13.9°C 3.5°F-15.8°C 85% Calm Calm -- 30.58 in1035.6 mb 0.00 in0.0 mm 0.00 in0.0 mm 0.00 in0.0 mm
09:40 AM 7.4°F-13.7°C 3.9°F-15.6°C 85% Calm Calm -- 30.58 in1035.6 mb 0.00 in0.0 mm 0.00 in0.0 mm 0.00 in0.0 mm
09:45 AM 8.0°F-13.3°C 4.4°F-15.3°C 85% Calm Calm -- 30.58 in1035.6 mb 0.00 in0.0 mm 0.00 in0.0 mm 0.00 in0.0 mm
09:50 AM 8.9°F-12.8°C 5.3°F-14.8°C 85% Calm Calm -- 30.58 in1035.6 mb 0.00 in0.0 mm 0.00 in0.0 mm 0.00 in0.0 mm
09:55 AM 9.8°F-12.3°C 6.0°F-14.4°C 84% Calm Calm -- 30.58 in1035.6 mb 0.00 in0.0 mm 0.00 in0.0 mm 0.00 in0.0 mm
10:00 AM 10.7°F-11.8°C 6.3°F-14.3°C 82% Calm Calm -- 30.58 in1035.6 mb 0.00 in0.0 mm 0.00 in0.0 mm 0.00 in0.0 mm
10:05 AM 11.4°F-11.4°C 6.7°F-14.1°C 81% 2.0 mph SSE3.2 kmh SSE -- 30.58 in1035.6 mb 0.00 in0.0 mm 0.00 in0.0 mm 0.00 in0.0 mm
10:10 AM 11.8°F-11.2°C 6.6°F-14.1°C 79% 4.0 mph SSE6.4 kmh SSE -- 30.57 in1035.2 mb 0.00 in0.0 mm 0.00 in0.0 mm 0.00 in0.0 mm
10:15 AM 12.2°F-11.0°C 7.0°F-13.9°C 79% 3.0 mph SSE4.8 kmh SSE -- 30.57 in1035.2 mb 0.00 in0.0 mm 0.00 in0.0 mm 0.00 in0.0 mm
10:20 AM 12.5°F-10.8°C 6.7°F-14.1°C 77% 3.0 mph SSE4.8 kmh SSE 5.0 mph8.0 kmh 30.58 in1035.6 mb 0.00 in0.0 mm 0.00 in0.0 mm 0.00 in0.0 mm
10:25 AM 12.7°F-10.7°C 6.9°F-13.9°C 77% 3.0 mph SSE4.8 kmh SSE 5.0 mph8.0 kmh 30.57 in1035.2 mb 0.00 in0.0 mm 0.00 in0.0 mm 0.00 in0.0 mm
10:30 AM 13.1°F-10.5°C 7.3°F-13.7°C 77% 4.0 mph SSE6.4 kmh SSE -- 30.57 in1035.2 mb 0.00 in0.0 mm 0.00 in0.0 mm 0.00 in0.0 mm
10:35 AM 13.4°F-10.3°C 7.3°F-13.7°C 76% 1.0 mph SSE1.6 kmh SSE -- 30.57 in1035.2 mb 0.00 in0.0 mm 0.00 in0.0 mm 0.00 in0.0 mm
10:40 AM 13.8°F-10.1°C 7.7°F-13.5°C 76% 1.0 mph SSE1.6 kmh SSE -- 30.57 in1035.2 mb 0.00 in0.0 mm 0.00 in0.0 mm 0.00 in0.0 mm
10:45 AM 14.0°F-10.0°C 7.9°F-13.4°C 76% Calm Calm -- 30.57 in1035.2 mb 0.00 in0.0 mm 0.00 in0.0 mm 0.00 in0.0 mm
10:50 AM 14.3°F-9.8°C 7.9°F-13.4°C 75% 3.0 mph SSE4.8 kmh SSE -- 30.57 in1035.2 mb 0.00 in0.0 mm 0.00 in0.0 mm 0.00 in0.0 mm
10:55 AM 14.6°F-9.7°C 8.1°F-13.3°C 75% 6.0 mph SSE9.7 kmh SSE -- 30.57 in1035.2 mb 0.00 in0.0 mm 0.00 in0.0 mm 0.00 in0.0 mm
11:00 AM 14.6°F-9.7°C 8.1°F-13.3°C 75% 1.0 mph SSE1.6 kmh SSE -- 30.57 in1035.2 mb 0.00 in0.0 mm 0.00 in0.0 mm 0.00 in0.0 mm
11:05 AM 15.0°F-9.4°C 8.5°F-13.1°C 75% 5.0 mph S8.0 kmh S -- 30.57 in1035.2 mb 0.00 in0.0 mm 0.00 in0.0 mm 0.00 in0.0 mm
11:10 AM 15.4°F-9.2°C 8.3°F-13.2°C 73% 5.0 mph SE8.0 kmh SE 8.0 mph12.9 kmh 30.57 in1035.2 mb 0.00 in0.0 mm 0.00 in0.0 mm 0.00 in0.0 mm
11:15 AM 15.5°F-9.2°C 8.4°F-13.1°C 73% 3.0 mph SSE4.8 kmh SSE 8.0 mph12.9 kmh 30.57 in1035.2 mb 0.00 in0.0 mm 0.00 in0.0 mm 0.00 in0.0 mm
11:20 AM 15.8°F-9.0°C 8.4°F-13.1°C 72% 6.0 mph S9.7 kmh S -- 30.57 in1035.2 mb 0.00 in0.0 mm 0.00 in0.0 mm 0.00 in0.0 mm
11:25 AM 16.1°F-8.8°C 8.7°F-12.9°C 72% 3.0 mph SE4.8 kmh SE -- 30.56 in1034.9 mb 0.00 in0.0 mm 0.00 in0.0 mm 0.00 in0.0 mm
11:30 AM 16.4°F-8.7°C 8.7°F-12.9°C 71% 2.0 mph S3.2 kmh S -- 30.56 in1034.9 mb 0.00 in0.0 mm 0.00 in0.0 mm 0.00 in0.0 mm
11:35 AM 16.5°F-8.6°C 8.5°F-13.1°C 70% 6.0 mph S9.7 kmh S -- 30.56 in1034.9 mb 0.00 in0.0 mm 0.00 in0.0 mm 0.00 in0.0 mm
11:40 AM 16.8°F-8.4°C 8.7°F-12.9°C 70% 6.0 mph S9.7 kmh S -- 30.56 in1034.9 mb 0.00 in0.0 mm 0.00 in0.0 mm 0.00 in0.0 mm
11:45 AM 17.3°F-8.2°C 9.2°F-12.7°C 70% 8.0 mph SSE12.9 kmh SSE -- 30.55 in1034.5 mb 0.00 in0.0 mm 0.00 in0.0 mm 0.00 in0.0 mm
11:50 AM 17.2°F-8.2°C 8.8°F-12.9°C 69% 2.0 mph SSE3.2 kmh SSE -- 30.55 in1034.5 mb 0.00 in0.0 mm 0.00 in0.0 mm 0.00 in0.0 mm
11:55 AM 17.9°F-7.8°C 9.8°F-12.3°C 70% 1.0 mph ESE1.6 kmh ESE -- 30.54 in1034.2 mb 0.00 in0.0 mm 0.00 in0.0 mm 0.00 in0.0 mm
12:00 PM 18.6°F-7.4°C 10.1°F-12.2°C 69% 1.0 mph S1.6 kmh S 6.0 mph9.7 kmh 30.54 in1034.2 mb 0.00 in0.0 mm 0.00 in0.0 mm 0.00 in0.0 mm
12:05 PM 18.9°F-7.3°C 9.8°F-12.3°C 67% 3.0 mph SSE4.8 kmh SSE 6.0 mph9.7 kmh 30.53 in1033.9 mb 0.00 in0.0 mm 0.00 in0.0 mm 0.00 in0.0 mm
12:10 PM 19.0°F-7.2°C 9.9°F-12.3°C 67% 3.0 mph SSE4.8 kmh SSE -- 30.53 in1033.9 mb 0.00 in0.0 mm 0.00 in0.0 mm 0.00 in0.0 mm
12:15 PM 19.3°F-7.1°C 10.8°F-11.8°C 69% 2.0 mph S3.2 kmh S -- 30.53 in1033.9 mb 0.00 in0.0 mm 0.00 in0.0 mm 0.00 in0.0 mm
12:20 PM 19.3°F-7.1°C 9.8°F-12.3°C 66% 3.0 mph S4.8 kmh S -- 30.52 in1033.5 mb 0.00 in0.0 mm 0.00 in0.0 mm 0.00 in0.0 mm
12:25 PM 19.4°F-7.0°C 10.3°F-12.1°C 67% 3.0 mph SSE4.8 kmh SSE -- 30.52 in1033.5 mb 0.00 in0.0 mm 0.00 in0.0 mm 0.00 in0.0 mm
12:30 PM 19.3°F-7.1°C 9.8°F-12.3°C 66% 4.0 mph S6.4 kmh S -- 30.51 in1033.2 mb 0.00 in0.0 mm 0.00 in0.0 mm 0.00 in0.0 mm
12:35 PM 19.6°F-6.9°C 10.1°F-12.2°C 66% 4.0 mph S6.4 kmh S -- 30.50 in1032.8 mb 0.00 in0.0 mm 0.00 in0.0 mm 0.00 in0.0 mm
12:40 PM 19.8°F-6.8°C 10.3°F-12.1°C 66% 5.0 mph SE8.0 kmh SE -- 30.50 in1032.8 mb 0.00 in0.0 mm 0.00 in0.0 mm 0.00 in0.0 mm
12:45 PM 20.1°F-6.6°C 10.3°F-12.1°C 65% 2.0 mph S3.2 kmh S -- 30.49 in1032.5 mb 0.00 in0.0 mm 0.00 in0.0 mm 0.00 in0.0 mm
12:50 PM 20.5°F-6.4°C 10.6°F-11.9°C 65% 4.0 mph S6.4 kmh S 9.0 mph14.5 kmh 30.49 in1032.5 mb 0.00 in0.0 mm 0.00 in0.0 mm 0.00 in0.0 mm
12:55 PM 20.5°F-6.4°C 10.3°F-12.1°C 64% 6.0 mph S9.7 kmh S 9.0 mph14.5 kmh 30.48 in1032.2 mb 0.00 in0.0 mm 0.00 in0.0 mm 0.00 in0.0 mm
01:00 PM 20.8°F-6.2°C 11.3°F-11.5°C 66% 4.0 mph S6.4 kmh S -- 30.48 in1032.2 mb 0.00 in0.0 mm 0.00 in0.0 mm 0.00 in0.0 mm
01:05 PM 20.5°F-6.4°C 10.3°F-12.1°C 64% 5.0 mph SE8.0 kmh SE -- 30.48 in1032.2 mb 0.00 in0.0 mm 0.00 in0.0 mm 0.00 in0.0 mm
01:10 PM 20.3°F-6.5°C 10.4°F-12.0°C 65% 4.0 mph S6.4 kmh S -- 30.47 in1031.8 mb 0.00 in0.0 mm 0.00 in0.0 mm 0.00 in0.0 mm
01:15 PM 20.6°F-6.3°C 11.1°F-11.6°C 66% 4.0 mph SE6.4 kmh SE -- 30.46 in1031.5 mb 0.00 in0.0 mm 0.00 in0.0 mm 0.00 in0.0 mm
01:20 PM 21.1°F-6.1°C 11.5°F-11.4°C 66% Calm Calm -- 30.46 in1031.5 mb 0.00 in0.0 mm 0.00 in0.0 mm 0.00 in0.0 mm
01:25 PM 21.5°F-5.8°C 10.9°F-11.7°C 63% 6.0 mph SSW9.7 kmh SSW -- 30.46 in1031.5 mb 0.00 in0.0 mm 0.00 in0.0 mm 0.00 in0.0 mm
01:30 PM 21.4°F-5.9°C 11.1°F-11.6°C 64% 3.0 mph S4.8 kmh S -- 30.45 in1031.2 mb 0.00 in0.0 mm 0.00 in0.0 mm 0.00 in0.0 mm
01:35 PM 21.7°F-5.7°C 11.4°F-11.4°C 64% 7.0 mph SSE11.3 kmh SSE -- 30.45 in1031.2 mb 0.00 in0.0 mm 0.00 in0.0 mm 0.00 in0.0 mm
01:40 PM 22.1°F-5.5°C 12.2°F-11.0°C 65% 2.0 mph SSE3.2 kmh SSE 9.0 mph14.5 kmh 30.45 in1031.2 mb 0.00 in0.0 mm 0.00 in0.0 mm 0.00 in0.0 mm
01:45 PM 22.6°F-5.2°C 12.3°F-10.9°C 64% 6.0 mph SE9.7 kmh SE 9.0 mph14.5 kmh 30.44 in1030.8 mb 0.00 in0.0 mm 0.00 in0.0 mm 0.00 in0.0 mm
01:50 PM 22.5°F-5.3°C 11.5°F-11.4°C 62% 2.0 mph S3.2 kmh S -- 30.44 in1030.8 mb 0.00 in0.0 mm 0.00 in0.0 mm 0.00 in0.0 mm
01:55 PM 22.6°F-5.2°C 11.2°F-11.6°C 61% 6.0 mph S9.7 kmh S -- 30.43 in1030.5 mb 0.00 in0.0 mm 0.00 in0.0 mm 0.00 in0.0 mm
02:00 PM 22.5°F-5.3°C 11.8°F-11.2°C 63% 6.0 mph SE9.7 kmh SE -- 30.43 in1030.5 mb 0.00 in0.0 mm 0.00 in0.0 mm 0.00 in0.0 mm
02:05 PM 22.4°F-5.3°C 11.0°F-11.7°C 61% 5.0 mph SE8.0 kmh SE -- 30.42 in1030.1 mb 0.00 in0.0 mm 0.00 in0.0 mm 0.00 in0.0 mm
02:10 PM 22.7°F-5.2°C 12.0°F-11.1°C 63% 8.0 mph SE12.9 kmh SE -- 30.42 in1030.1 mb 0.00 in0.0 mm 0.00 in0.0 mm 0.00 in0.0 mm
02:15 PM 22.9°F-5.1°C 11.5°F-11.4°C 61% 3.0 mph SE4.8 kmh SE -- 30.41 in1029.8 mb 0.00 in0.0 mm 0.00 in0.0 mm 0.00 in0.0 mm
02:20 PM 22.9°F-5.1°C 11.1°F-11.6°C 60% 5.0 mph S8.0 kmh S -- 30.40 in1029.5 mb 0.00 in0.0 mm 0.00 in0.0 mm 0.00 in0.0 mm
02:25 PM 23.0°F-5.0°C 11.6°F-11.3°C 61% 8.0 mph SSE12.9 kmh SSE -- 30.40 in1029.5 mb 0.00 in0.0 mm 0.00 in0.0 mm 0.00 in0.0 mm
02:30 PM 23.4°F-4.8°C 12.3°F-10.9°C 62% 6.0 mph S9.7 kmh S 10.0 mph16.1 kmh 30.40 in1029.5 mb 0.00 in0.0 mm 0.00 in0.0 mm 0.00 in0.0 mm
02:35 PM 23.5°F-4.7°C 11.7°F-11.3°C 60% 5.0 mph S8.0 kmh S 10.0 mph16.1 kmh 30.40 in1029.5 mb 0.00 in0.0 mm 0.00 in0.0 mm 0.00 in0.0 mm
02:40 PM 23.4°F-4.8°C 11.2°F-11.6°C 59% 3.0 mph S4.8 kmh S -- 30.39 in1029.1 mb 0.00 in0.0 mm 0.00 in0.0 mm 0.00 in0.0 mm
02:45 PM 23.3°F-4.8°C 11.1°F-11.6°C 59% 4.0 mph SSE6.4 kmh SSE -- 30.38 in1028.8 mb 0.00 in0.0 mm 0.00 in0.0 mm 0.00 in0.0 mm
02:50 PM 23.3°F-4.8°C 11.1°F-11.6°C 59% 4.0 mph S6.4 kmh S -- 30.37 in1028.4 mb 0.00 in0.0 mm 0.00 in0.0 mm 0.00 in0.0 mm
02:55 PM 23.6°F-4.7°C 11.8°F-11.2°C 60% 3.0 mph SSE4.8 kmh SSE -- 30.36 in1028.1 mb 0.00 in0.0 mm 0.00 in0.0 mm 0.00 in0.0 mm
03:00 PM 23.7°F-4.6°C 11.9°F-11.2°C 60% 5.0 mph SSE8.0 kmh SSE -- 30.36 in1028.1 mb 0.00 in0.0 mm 0.00 in0.0 mm 0.00 in0.0 mm
03:05 PM 23.8°F-4.6°C 12.0°F-11.1°C 60% 5.0 mph SSE8.0 kmh SSE -- 30.36 in1028.1 mb 0.00 in0.0 mm 0.00 in0.0 mm 0.00 in0.0 mm
03:10 PM 24.0°F-4.4°C 12.2°F-11.0°C 60% 7.0 mph SSE11.3 kmh SSE -- 30.35 in1027.8 mb 0.00 in0.0 mm 0.00 in0.0 mm 0.00 in0.0 mm
03:15 PM 24.3°F-4.3°C 12.4°F-10.9°C 60% 8.0 mph SSE12.9 kmh SSE -- 30.34 in1027.4 mb 0.00 in0.0 mm 0.00 in0.0 mm 0.00 in0.0 mm
03:20 PM 24.1°F-4.4°C 12.3°F-10.9°C 60% 7.0 mph SE11.3 kmh SE 13.0 mph20.9 kmh 30.34 in1027.4 mb 0.00 in0.0 mm 0.00 in0.0 mm 0.00 in0.0 mm
03:25 PM 24.0°F-4.4°C 12.2°F-11.0°C 60% 9.0 mph SSE14.5 kmh SSE 13.0 mph20.9 kmh 30.34 in1027.4 mb 0.00 in0.0 mm 0.00 in0.0 mm 0.00 in0.0 mm
03:30 PM 23.9°F-4.5°C 12.4°F-10.9°C 61% 8.0 mph SSE12.9 kmh SSE -- 30.34 in1027.4 mb 0.00 in0.0 mm 0.00 in0.0 mm 0.00 in0.0 mm
03:35 PM 24.0°F-4.4°C 12.9°F-10.6°C 62% 5.0 mph S8.0 kmh S -- 30.33 in1027.1 mb 0.00 in0.0 mm 0.00 in0.0 mm 0.00 in0.0 mm
03:40 PM 24.2°F-4.3°C 13.4°F-10.3°C 63% 7.0 mph S11.3 kmh S -- 30.33 in1027.1 mb 0.00 in0.0 mm 0.00 in0.0 mm 0.00 in0.0 mm
03:45 PM 24.3°F-4.3°C 13.2°F-10.4°C 62% 9.0 mph S14.5 kmh S -- 30.33 in1027.1 mb 0.00 in0.0 mm 0.00 in0.0 mm 0.00 in0.0 mm
03:50 PM 24.4°F-4.2°C 13.3°F-10.4°C 62% 3.0 mph SE4.8 kmh SE -- 30.33 in1027.1 mb 0.00 in0.0 mm 0.00 in0.0 mm 0.00 in0.0 mm
03:55 PM 24.5°F-4.2°C 13.7°F-10.2°C 63% 11.0 mph S17.7 kmh S -- 30.33 in1027.1 mb 0.00 in0.0 mm 0.00 in0.0 mm 0.00 in0.0 mm
04:00 PM 24.7°F-4.1°C 13.9°F-10.1°C 63% 5.0 mph S8.0 kmh S -- 30.33 in1027.1 mb 0.00 in0.0 mm 0.00 in0.0 mm 0.00 in0.0 mm
04:05 PM 24.8°F-4.0°C 14.0°F-10.0°C 63% 4.0 mph S6.4 kmh S -- 30.33 in1027.1 mb 0.00 in0.0 mm 0.00 in0.0 mm 0.00 in0.0 mm
04:10 PM 24.9°F-3.9°C 14.5°F-9.7°C 64% 9.0 mph S14.5 kmh S 16.0 mph25.7 kmh 30.32 in1026.8 mb 0.00 in0.0 mm 0.00 in0.0 mm 0.00 in0.0 mm
04:15 PM 25.0°F-3.9°C 14.6°F-9.7°C 64% 13.0 mph SE20.9 kmh SE 16.0 mph25.7 kmh 30.32 in1026.8 mb 0.00 in0.0 mm 0.00 in0.0 mm 0.00 in0.0 mm
04:20 PM 25.0°F-3.9°C 14.6°F-9.7°C 64% 2.0 mph SE3.2 kmh SE -- 30.30 in1026.1 mb 0.00 in0.0 mm 0.00 in0.0 mm 0.00 in0.0 mm
04:25 PM 25.1°F-3.8°C 15.0°F-9.4°C 65% 6.0 mph S9.7 kmh S -- 30.30 in1026.1 mb 0.00 in0.0 mm 0.00 in0.0 mm 0.00 in0.0 mm
04:30 PM 25.2°F-3.8°C 15.5°F-9.2°C 66% 9.0 mph S14.5 kmh S -- 30.30 in1026.1 mb 0.00 in0.0 mm 0.00 in0.0 mm 0.00 in0.0 mm
04:35 PM 25.2°F-3.8°C 15.5°F-9.2°C 66% 4.0 mph S6.4 kmh S -- 30.30 in1026.1 mb 0.00 in0.0 mm 0.00 in0.0 mm 0.00 in0.0 mm
04:40 PM 25.2°F-3.8°C 15.5°F-9.2°C 66% 7.0 mph SE11.3 kmh SE -- 30.30 in1026.1 mb 0.00 in0.0 mm 0.00 in0.0 mm 0.00 in0.0 mm
04:45 PM 25.2°F-3.8°C 15.5°F-9.2°C 66% 5.0 mph SE8.0 kmh SE -- 30.30 in1026.1 mb 0.00 in0.0 mm 0.00 in0.0 mm 0.00 in0.0 mm
04:50 PM 25.3°F-3.7°C 15.6°F-9.1°C 66% 6.0 mph SE9.7 kmh SE -- 30.29 in1025.7 mb 0.00 in0.0 mm 0.00 in0.0 mm 0.00 in0.0 mm
04:55 PM 25.3°F-3.7°C 15.6°F-9.1°C 66% 10.0 mph SSE16.1 kmh SSE -- 30.28 in1025.4 mb 0.00 in0.0 mm 0.00 in0.0 mm 0.00 in0.0 mm
05:00 PM 25.3°F-3.7°C 15.6°F-9.1°C 66% 6.0 mph SSE9.7 kmh SSE 12.0 mph19.3 kmh 30.29 in1025.7 mb 0.00 in0.0 mm 0.00 in0.0 mm 0.00 in0.0 mm
05:05 PM 25.5°F-3.6°C 16.1°F-8.8°C 67% 6.0 mph S9.7 kmh S 12.0 mph19.3 kmh 30.29 in1025.7 mb 0.00 in0.0 mm 0.00 in0.0 mm 0.00 in0.0 mm
05:10 PM 25.6°F-3.6°C 16.2°F-8.8°C 67% 7.0 mph SE11.3 kmh SE -- 30.29 in1025.7 mb 0.00 in0.0 mm 0.00 in0.0 mm 0.00 in0.0 mm
05:15 PM 25.6°F-3.6°C 16.5°F-8.6°C 68% 4.0 mph SSE6.4 kmh SSE -- 30.29 in1025.7 mb 0.00 in0.0 mm 0.00 in0.0 mm 0.00 in0.0 mm
05:20 PM 25.7°F-3.5°C 16.3°F-8.7°C 67% 7.0 mph SSE11.3 kmh SSE -- 30.29 in1025.7 mb 0.00 in0.0 mm 0.00 in0.0 mm 0.00 in0.0 mm
05:25 PM 25.7°F-3.5°C 16.3°F-8.7°C 67% 6.0 mph SSE9.7 kmh SSE -- 30.28 in1025.4 mb 0.00 in0.0 mm 0.00 in0.0 mm 0.00 in0.0 mm
05:30 PM 25.7°F-3.5°C 16.3°F-8.7°C 67% 7.0 mph SE11.3 kmh SE -- 30.28 in1025.4 mb 0.00 in0.0 mm 0.00 in0.0 mm 0.00 in0.0 mm
05:35 PM 25.7°F-3.5°C 16.3°F-8.7°C 67% 7.0 mph SE11.3 kmh SE -- 30.27 in1025.1 mb 0.00 in0.0 mm 0.00 in0.0 mm 0.00 in0.0 mm
05:40 PM 25.8°F-3.4°C 16.4°F-8.7°C 67% 6.0 mph SE9.7 kmh SE -- 30.26 in1024.7 mb 0.00 in0.0 mm 0.00 in0.0 mm 0.00 in0.0 mm
05:45 PM 25.8°F-3.4°C 16.7°F-8.5°C 68% 5.0 mph SE8.0 kmh SE -- 30.26 in1024.7 mb 0.00 in0.0 mm 0.00 in0.0 mm 0.00 in0.0 mm
05:50 PM 25.8°F-3.4°C 16.7°F-8.5°C 68% 7.0 mph SE11.3 kmh SE 12.0 mph19.3 kmh 30.25 in1024.4 mb 0.00 in0.0 mm 0.00 in0.0 mm 0.00 in0.0 mm
05:55 PM 25.8°F-3.4°C 17.1°F-8.3°C 69% 4.0 mph SE6.4 kmh SE 12.0 mph19.3 kmh 30.25 in1024.4 mb 0.00 in0.0 mm 0.00 in0.0 mm 0.00 in0.0 mm
06:00 PM 25.8°F-3.4°C 17.1°F-8.3°C 69% 5.0 mph SE8.0 kmh SE -- 30.24 in1024.0 mb 0.00 in0.0 mm 0.00 in0.0 mm 0.00 in0.0 mm
06:05 PM 25.8°F-3.4°C 17.1°F-8.3°C 69% 7.0 mph SSE11.3 kmh SSE -- 30.24 in1024.0 mb 0.00 in0.0 mm 0.00 in0.0 mm 0.00 in0.0 mm
06:10 PM 25.8°F-3.4°C 17.1°F-8.3°C 69% 5.0 mph SE8.0 kmh SE -- 30.24 in1024.0 mb 0.00 in0.0 mm 0.00 in0.0 mm 0.00 in0.0 mm
06:15 PM 25.8°F-3.4°C 17.1°F-8.3°C 69% 6.0 mph SE9.7 kmh SE -- 30.23 in1023.7 mb 0.00 in0.0 mm 0.00 in0.0 mm 0.00 in0.0 mm
06:20 PM 25.8°F-3.4°C 17.1°F-8.3°C 69% 4.0 mph ESE6.4 kmh ESE -- 30.22 in1023.4 mb 0.00 in0.0 mm 0.00 in0.0 mm 0.00 in0.0 mm
06:25 PM 25.8°F-3.4°C 17.1°F-8.3°C 69% 8.0 mph SE12.9 kmh SE -- 30.22 in1023.4 mb 0.00 in0.0 mm 0.00 in0.0 mm 0.00 in0.0 mm
06:30 PM 26.0°F-3.3°C 17.2°F-8.2°C 69% 8.0 mph SE12.9 kmh SE -- 30.21 in1023.0 mb 0.00 in0.0 mm 0.00 in0.0 mm 0.00 in0.0 mm
06:35 PM 26.0°F-3.3°C 17.2°F-8.2°C 69% 7.0 mph SE11.3 kmh SE -- 30.21 in1023.0 mb 0.00 in0.0 mm 0.00 in0.0 mm 0.00 in0.0 mm
06:40 PM 26.2°F-3.2°C 17.4°F-8.1°C 69% 4.0 mph SSE6.4 kmh SSE 12.0 mph19.3 kmh 30.20 in1022.7 mb 0.00 in0.0 mm 0.00 in0.0 mm 0.00 in0.0 mm
06:45 PM 26.2°F-3.2°C 17.4°F-8.1°C 69% 5.0 mph SE8.0 kmh SE 12.0 mph19.3 kmh 30.19 in1022.4 mb 0.00 in0.0 mm 0.00 in0.0 mm 0.00 in0.0 mm
06:50 PM 26.2°F-3.2°C 17.4°F-8.1°C 69% 9.0 mph SE14.5 kmh SE -- 30.19 in1022.4 mb 0.00 in0.0 mm 0.00 in0.0 mm 0.00 in0.0 mm
06:55 PM 26.3°F-3.2°C 17.9°F-7.8°C 70% 7.0 mph SSE11.3 kmh SSE -- 30.19 in1022.4 mb 0.00 in0.0 mm 0.00 in0.0 mm 0.00 in0.0 mm
07:00 PM 26.3°F-3.2°C 17.9°F-7.8°C 70% 9.0 mph SE14.5 kmh SE -- 30.18 in1022.0 mb 0.00 in0.0 mm 0.00 in0.0 mm 0.00 in0.0 mm
07:05 PM 26.4°F-3.1°C 18.3°F-7.6°C 71% 6.0 mph SE9.7 kmh SE -- 30.17 in1021.7 mb 0.00 in0.0 mm 0.00 in0.0 mm 0.00 in0.0 mm
07:10 PM 26.4°F-3.1°C 18.3°F-7.6°C 71% 10.0 mph SE16.1 kmh SE -- 30.17 in1021.7 mb 0.00 in0.0 mm 0.00 in0.0 mm 0.00 in0.0 mm
07:15 PM 26.5°F-3.1°C 18.1°F-7.7°C 70% 4.0 mph S6.4 kmh S -- 30.16 in1021.3 mb 0.00 in0.0 mm 0.00 in0.0 mm 0.00 in0.0 mm
07:20 PM 26.5°F-3.1°C 18.1°F-7.7°C 70% 8.0 mph SE12.9 kmh SE -- 30.16 in1021.3 mb 0.00 in0.0 mm 0.00 in0.0 mm 0.00 in0.0 mm
07:25 PM 26.6°F-3.0°C 18.2°F-7.7°C 70% 5.0 mph S8.0 kmh S -- 30.16 in1021.3 mb 0.00 in0.0 mm 0.00 in0.0 mm 0.00 in0.0 mm
07:30 PM 26.6°F-3.0°C 18.2°F-7.7°C 70% 9.0 mph SSE14.5 kmh SSE 15.0 mph24.1 kmh 30.16 in1021.3 mb 0.00 in0.0 mm 0.00 in0.0 mm 0.00 in0.0 mm
07:35 PM 26.6°F-3.0°C 18.2°F-7.7°C 70% 8.0 mph S12.9 kmh S 15.0 mph24.1 kmh 30.16 in1021.3 mb 0.00 in0.0 mm 0.00 in0.0 mm 0.00 in0.0 mm
07:40 PM 26.5°F-3.1°C 18.4°F-7.6°C 71% 4.0 mph SSE6.4 kmh SSE -- 30.15 in1021.0 mb 0.00 in0.0 mm 0.00 in0.0 mm 0.00 in0.0 mm
07:45 PM 26.5°F-3.1°C 18.4°F-7.6°C 71% 3.0 mph SE4.8 kmh SE -- 30.15 in1021.0 mb 0.00 in0.0 mm 0.00 in0.0 mm 0.00 in0.0 mm
07:50 PM 26.5°F-3.1°C 18.7°F-7.4°C 72% 8.0 mph SSE12.9 kmh SSE -- 30.15 in1021.0 mb 0.00 in0.0 mm 0.00 in0.0 mm 0.00 in0.0 mm
07:55 PM 26.6°F-3.0°C 18.8°F-7.3°C 72% 9.0 mph SSE14.5 kmh SSE -- 30.14 in1020.7 mb 0.00 in0.0 mm 0.00 in0.0 mm 0.00 in0.0 mm
08:00 PM 26.5°F-3.1°C 19.0°F-7.2°C 73% 10.0 mph S16.1 kmh S -- 30.13 in1020.3 mb 0.00 in0.0 mm 0.00 in0.0 mm 0.00 in0.0 mm
08:05 PM 26.6°F-3.0°C 19.1°F-7.2°C 73% 13.0 mph SE20.9 kmh SE -- 30.12 in1020.0 mb 0.00 in0.0 mm 0.00 in0.0 mm 0.00 in0.0 mm
08:10 PM 26.6°F-3.0°C 19.1°F-7.2°C 73% 12.0 mph SE19.3 kmh SE -- 30.11 in1019.6 mb 0.00 in0.0 mm 0.00 in0.0 mm 0.00 in0.0 mm
08:15 PM 26.7°F-2.9°C 19.5°F-6.9°C 74% 10.0 mph SE16.1 kmh SE -- 30.11 in1019.6 mb 0.00 in0.0 mm 0.00 in0.0 mm 0.00 in0.0 mm
08:20 PM 26.7°F-2.9°C 19.5°F-6.9°C 74% 8.0 mph SE12.9 kmh SE 22.0 mph35.4 kmh 30.10 in1019.3 mb 0.00 in0.0 mm 0.00 in0.0 mm 0.00 in0.0 mm
08:25 PM 26.7°F-2.9°C 19.5°F-6.9°C 74% 7.0 mph SE11.3 kmh SE 22.0 mph35.4 kmh 30.09 in1019.0 mb 0.00 in0.0 mm 0.00 in0.0 mm 0.00 in0.0 mm
08:30 PM 26.8°F-2.9°C 19.6°F-6.9°C 74% 14.0 mph SSE22.5 kmh SSE -- 30.09 in1019.0 mb 0.00 in0.0 mm 0.00 in0.0 mm 0.00 in0.0 mm
08:35 PM 26.8°F-2.9°C 19.6°F-6.9°C 74% 10.0 mph SE16.1 kmh SE -- 30.08 in1018.6 mb 0.00 in0.0 mm 0.00 in0.0 mm 0.00 in0.0 mm
08:40 PM 26.9°F-2.8°C 19.7°F-6.8°C 74% 7.0 mph SE11.3 kmh SE -- 30.08 in1018.6 mb 0.00 in0.0 mm 0.00 in0.0 mm 0.00 in0.0 mm
08:45 PM 27.0°F-2.8°C 19.8°F-6.8°C 74% 11.0 mph SE17.7 kmh SE -- 30.08 in1018.6 mb 0.00 in0.0 mm 0.00 in0.0 mm 0.00 in0.0 mm
08:50 PM 27.0°F-2.8°C 19.8°F-6.8°C 74% 12.0 mph SE19.3 kmh SE -- 30.07 in1018.3 mb 0.00 in0.0 mm 0.00 in0.0 mm 0.00 in0.0 mm
08:55 PM 27.1°F-2.7°C 19.6°F-6.9°C 73% 10.0 mph SE16.1 kmh SE -- 30.06 in1017.9 mb 0.00 in0.0 mm 0.00 in0.0 mm 0.00 in0.0 mm
09:00 PM 27.2°F-2.7°C 19.4°F-7.0°C 72% 16.0 mph SSE25.7 kmh SSE -- 30.06 in1017.9 mb 0.00 in0.0 mm 0.00 in0.0 mm 0.00 in0.0 mm
09:05 PM 27.2°F-2.7°C 19.4°F-7.0°C 72% 13.0 mph SE20.9 kmh SE -- 30.06 in1017.9 mb 0.00 in0.0 mm 0.00 in0.0 mm 0.00 in0.0 mm
09:10 PM 27.3°F-2.6°C 19.5°F-6.9°C 72% 8.0 mph SE12.9 kmh SE 21.0 mph33.8 kmh 30.06 in1017.9 mb 0.00 in0.0 mm 0.00 in0.0 mm 0.00 in0.0 mm
09:15 PM 27.3°F-2.6°C 19.5°F-6.9°C 72% 10.0 mph SSE16.1 kmh SSE 21.0 mph33.8 kmh 30.05 in1017.6 mb 0.00 in0.0 mm 0.00 in0.0 mm 0.00 in0.0 mm
09:20 PM 27.3°F-2.6°C 19.8°F-6.8°C 73% 10.0 mph SSE16.1 kmh SSE -- 30.05 in1017.6 mb 0.00 in0.0 mm 0.00 in0.0 mm 0.00 in0.0 mm
09:25 PM 27.4°F-2.6°C 19.6°F-6.9°C 72% 10.0 mph SE16.1 kmh SE -- 30.04 in1017.3 mb 0.00 in0.0 mm 0.00 in0.0 mm 0.00 in0.0 mm
09:30 PM 27.4°F-2.6°C 19.6°F-6.9°C 72% 12.0 mph S19.3 kmh S -- 30.05 in1017.6 mb 0.00 in0.0 mm 0.00 in0.0 mm 0.00 in0.0 mm
09:35 PM 27.5°F-2.5°C 20.0°F-6.7°C 73% 9.0 mph SSE14.5 kmh SSE -- 30.05 in1017.6 mb 0.00 in0.0 mm 0.00 in0.0 mm 0.00 in0.0 mm
09:40 PM 27.5°F-2.5°C 19.7°F-6.8°C 72% 10.0 mph SSE16.1 kmh SSE -- 30.04 in1017.3 mb 0.00 in0.0 mm 0.00 in0.0 mm 0.00 in0.0 mm
09:45 PM 27.5°F-2.5°C 19.7°F-6.8°C 72% 12.0 mph SE19.3 kmh SE -- 30.05 in1017.6 mb 0.00 in0.0 mm 0.00 in0.0 mm 0.00 in0.0 mm
09:50 PM 27.6°F-2.4°C 19.8°F-6.8°C 72% 10.0 mph S16.1 kmh S -- 30.04 in1017.3 mb 0.00 in0.0 mm 0.00 in0.0 mm 0.00 in0.0 mm
09:55 PM 27.6°F-2.4°C 19.8°F-6.8°C 72% 10.0 mph S16.1 kmh S -- 30.05 in1017.6 mb 0.00 in0.0 mm 0.00 in0.0 mm 0.00 in0.0 mm
10:00 PM 27.7°F-2.4°C 19.9°F-6.7°C 72% 9.0 mph S14.5 kmh S 19.0 mph30.6 kmh 30.05 in1017.6 mb 0.00 in0.0 mm 0.00 in0.0 mm 0.00 in0.0 mm
10:05 PM 27.8°F-2.3°C 20.0°F-6.7°C 72% 10.0 mph S16.1 kmh S 19.0 mph30.6 kmh 30.05 in1017.6 mb 0.00 in0.0 mm 0.00 in0.0 mm 0.00 in0.0 mm
10:10 PM 27.8°F-2.3°C 20.0°F-6.7°C 72% 8.0 mph SSE12.9 kmh SSE -- 30.06 in1017.9 mb 0.00 in0.0 mm 0.00 in0.0 mm 0.00 in0.0 mm
10:15 PM 27.9°F-2.3°C 19.7°F-6.8°C 71% 11.0 mph S17.7 kmh S -- 30.06 in1017.9 mb 0.00 in0.0 mm 0.00 in0.0 mm 0.00 in0.0 mm
10:20 PM 27.9°F-2.3°C 19.7°F-6.8°C 71% 5.0 mph SSE8.0 kmh SSE -- 30.06 in1017.9 mb 0.00 in0.0 mm 0.00 in0.0 mm 0.00 in0.0 mm
10:25 PM 28.0°F-2.2°C 19.8°F-6.8°C 71% 7.0 mph S11.3 kmh S -- 30.06 in1017.9 mb 0.00 in0.0 mm 0.00 in0.0 mm 0.00 in0.0 mm
10:30 PM 28.0°F-2.2°C 19.8°F-6.8°C 71% 6.0 mph S9.7 kmh S -- 30.06 in1017.9 mb 0.00 in0.0 mm 0.00 in0.0 mm 0.00 in0.0 mm
10:35 PM 28.1°F-2.2°C 19.9°F-6.7°C 71% 8.0 mph S12.9 kmh S -- 30.05 in1017.6 mb 0.00 in0.0 mm 0.00 in0.0 mm 0.00 in0.0 mm
10:40 PM 28.1°F-2.2°C 19.9°F-6.7°C 71% 7.0 mph S11.3 kmh S -- 30.06 in1017.9 mb 0.00 in0.0 mm 0.00 in0.0 mm 0.00 in0.0 mm
10:45 PM 28.2°F-2.1°C 20.0°F-6.7°C 71% 5.0 mph S8.0 kmh S -- 30.06 in1017.9 mb 0.00 in0.0 mm 0.00 in0.0 mm 0.00 in0.0 mm
10:50 PM 28.2°F-2.1°C 20.0°F-6.7°C 71% 4.0 mph SSW6.4 kmh SSW 11.0 mph17.7 kmh 30.06 in1017.9 mb 0.00 in0.0 mm 0.00 in0.0 mm 0.00 in0.0 mm
10:55 PM 28.2°F-2.1°C 20.0°F-6.7°C 71% 5.0 mph S8.0 kmh S 11.0 mph17.7 kmh 30.05 in1017.6 mb 0.00 in0.0 mm 0.00 in0.0 mm 0.00 in0.0 mm
11:00 PM 28.2°F-2.1°C 20.0°F-6.7°C 71% 11.0 mph SE17.7 kmh SE -- 30.04 in1017.3 mb 0.00 in0.0 mm 0.00 in0.0 mm 0.00 in0.0 mm
11:05 PM 28.3°F-2.1°C 20.1°F-6.6°C 71% 9.0 mph SE14.5 kmh SE -- 30.04 in1017.3 mb 0.00 in0.0 mm 0.00 in0.0 mm 0.00 in0.0 mm
11:10 PM 28.3°F-2.1°C 20.1°F-6.6°C 71% 7.0 mph S11.3 kmh S -- 30.04 in1017.3 mb 0.00 in0.0 mm 0.00 in0.0 mm 0.00 in0.0 mm
11:15 PM 28.4°F-2.0°C 20.2°F-6.6°C 71% 8.0 mph SSW12.9 kmh SSW -- 30.04 in1017.3 mb 0.00 in0.0 mm 0.00 in0.0 mm 0.00 in0.0 mm
11:20 PM 28.4°F-2.0°C 20.2°F-6.6°C 71% 7.0 mph SE11.3 kmh SE -- 30.04 in1017.3 mb 0.00 in0.0 mm 0.00 in0.0 mm 0.00 in0.0 mm
11:25 PM 28.5°F-1.9°C 20.3°F-6.5°C 71% 4.0 mph SSW6.4 kmh SSW -- 30.05 in1017.6 mb 0.00 in0.0 mm 0.00 in0.0 mm 0.00 in0.0 mm
11:30 PM 28.5°F-1.9°C 20.3°F-6.5°C 71% 4.0 mph S6.4 kmh S -- 30.05 in1017.6 mb 0.00 in0.0 mm 0.00 in0.0 mm 0.00 in0.0 mm
11:35 PM 28.5°F-1.9°C 20.3°F-6.5°C 71% 1.0 mph S1.6 kmh S -- 30.04 in1017.3 mb 0.00 in0.0 mm 0.00 in0.0 mm 0.00 in0.0 mm
11:40 PM 28.4°F-2.0°C 20.2°F-6.6°C 71% 7.0 mph S11.3 kmh S 10.0 mph16.1 kmh 30.04 in1017.3 mb 0.00 in0.0 mm 0.00 in0.0 mm 0.00 in0.0 mm
11:45 PM 28.4°F-2.0°C 20.2°F-6.6°C 71% 5.0 mph S8.0 kmh S 10.0 mph16.1 kmh 30.03 in1016.9 mb 0.00 in0.0 mm 0.00 in0.0 mm 0.00 in0.0 mm
11:50 PM 28.4°F-2.0°C 20.2°F-6.6°C 71% 3.0 mph S4.8 kmh S -- 30.03 in1016.9 mb 0.00 in0.0 mm 0.00 in0.0 mm 0.00 in0.0 mm
11:55 PM 28.4°F-2.0°C 20.5°F-6.4°C 72% 3.0 mph S4.8 kmh S -- 30.02 in1016.6 mb 0.00 in0.0 mm 0.00 in0.0 mm 0.00 in0.0 mm